Time;durP1;ratioP1;P1;durP2;ratioP2;P2;SDS_P1;SDS_P2;PMS_P1;PMS_P2;Temp;Humidity;BMP_temperature;BMP_pressure;BME280_temperature;BME280_humidity;BME280_pressure;Samples;Min_cycle;Max_cycle;Signal;HPM_P1;HPM_P2
2021/03/10 00:01:15;;;;;;;82.88;41.73;;;;;;;-1.82;61.19;100961.92;1726403;80;26143;-89
2021/03/10 00:03:41;;;;;;;84.58;43.08;;;;;;;-1.80;61.25;100958.84;1748579;80;25333;-89
2021/03/10 00:06:08;;;;;;;88.85;43.98;;;;;;;-1.80;61.32;100962.69;1727214;81;25340;-88
2021/03/10 00:08:34;;;;;;;83.97;43.63;;;;;;;-1.79;61.37;100960.03;1707651;81;25911;-89
2021/03/10 00:11:00;;;;;;;85.85;40.83;;;;;;;-1.80;61.41;100957.11;1702744;81;26151;-89
2021/03/10 00:13:28;;;;;;;80.42;41.55;;;;;;;-1.89;61.43;100961.35;1698630;81;25772;-90
2021/03/10 00:15:54;;;;;;;87.42;41.23;;;;;;;-1.92;61.55;100957.66;1671118;83;25395;-90
2021/03/10 00:18:20;;;;;;;82.90;42.20;;;;;;;-1.99;61.65;100955.02;1691080;83;25436;-90
2021/03/10 00:20:47;;;;;;;85.80;44.42;;;;;;;-1.98;61.83;100954.55;1709260;81;25287;-90
2021/03/10 00:23:13;;;;;;;84.77;43.35;;;;;;;-2.01;61.84;100957.62;1678565;83;25300;-88
2021/03/10 00:25:39;;;;;;;98.95;46.40;;;;;;;-1.98;61.99;100955.84;1722657;80;25650;-89
2021/03/10 00:28:06;;;;;;;88.27;43.83;;;;;;;-2.01;62.01;100952.96;1727883;80;25457;-90
2021/03/10 00:30:32;;;;;;;81.08;41.15;;;;;;;-1.97;62.17;100960.88;1669790;83;25419;-89
2021/03/10 00:32:59;;;;;;;85.92;43.23;;;;;;;-1.99;62.07;100960.56;1687434;83;25285;-89
2021/03/10 00:35:25;;;;;;;78.02;40.85;;;;;;;-2.04;62.15;100960.33;1692015;82;25345;-89
2021/03/10 00:37:51;;;;;;;80.65;42.98;;;;;;;-1.95;62.29;100958.25;1688102;83;26382;-88
2021/03/10 00:40:18;;;;;;;74.03;40.30;;;;;;;-1.89;62.21;100956.23;1691428;82;25833;-88
2021/03/10 00:42:44;;;;;;;87.10;40.00;;;;;;;-1.88;62.17;100950.68;1687395;82;25356;-89
2021/03/10 00:45:12;;;;;;;78.42;39.90;;;;;;;-1.86;62.20;100945.84;1678101;82;25306;-90
2021/03/10 00:47:38;;;;;;;78.15;38.55;;;;;;;-1.93;62.08;100943.20;1665507;82;25557;-90
2021/03/10 00:50:06;;;;;;;80.15;42.05;;;;;;;-1.98;62.15;100943.03;1679404;83;26419;-88
2021/03/10 00:52:32;;;;;;;79.07;40.50;;;;;;;-1.96;62.26;100945.08;1669728;83;25679;-88
2021/03/10 00:54:59;;;;;;;81.17;42.00;;;;;;;-2.07;62.23;100947.67;1676056;83;25520;-88
2021/03/10 00:57:25;;;;;;;75.03;42.25;;;;;;;-2.15;62.32;100938.69;1672807;83;25371;-89
2021/03/10 00:59:51;;;;;;;72.42;40.17;;;;;;;-2.16;62.57;100943.41;1684804;82;25375;-88
2021/03/10 01:02:18;;;;;;;65.35;39.78;;;;;;;-2.22;62.50;100941.13;1680085;83;25657;-88
2021/03/10 01:04:44;;;;;;;73.15;40.45;;;;;;;-2.20;62.75;100942.72;1676268;83;25384;-88
2021/03/10 01:07:10;;;;;;;75.85;39.20;;;;;;;-2.19;62.79;100950.77;1686009;82;25383;-88
2021/03/10 01:09:37;;;;;;;74.65;40.10;;;;;;;-2.21;62.82;100947.89;1683579;83;25720;-88
2021/03/10 01:12:04;;;;;;;73.57;37.53;;;;;;;-2.24;62.95;100948.86;1689695;83;25431;-88
2021/03/10 01:14:30;;;;;;;72.85;38.78;;;;;;;-2.28;63.01;100940.95;1688281;82;25647;-88
2021/03/10 01:16:56;;;;;;;69.35;35.17;;;;;;;-2.30;63.08;100935.88;1698756;81;25354;-88
2021/03/10 01:19:23;;;;;;;65.45;34.00;;;;;;;-2.32;63.14;100936.85;1686712;81;25342;-88
2021/03/10 01:21:49;;;;;;;60.23;33.90;;;;;;;-2.32;63.24;100930.03;1675403;83;25349;-89
2021/03/10 01:24:15;;;;;;;68.55;33.67;;;;;;;-2.27;63.29;100925.95;1701761;81;25696;-89
2021/03/10 01:26:42;;;;;;;69.35;35.30;;;;;;;-2.27;63.33;100930.62;1694141;82;25591;-88
2021/03/10 01:29:08;;;;;;;65.00;31.30;;;;;;;-2.24;63.38;100928.37;1696365;82;25778;-89
2021/03/10 01:31:35;;;;;;;64.07;32.95;;;;;;;-2.21;63.38;100928.69;1697496;81;25376;-89
2021/03/10 01:34:01;;;;;;;62.98;33.45;;;;;;;-2.21;63.41;100931.25;1693229;81;26474;-89
2021/03/10 01:36:27;;;;;;;65.80;34.60;;;;;;;-2.19;63.43;100926.45;1693688;82;25576;-90
2021/03/10 01:38:54;;;;;;;65.57;33.08;;;;;;;-2.16;63.38;100926.76;1705895;81;25730;-89
2021/03/10 01:41:20;;;;;;;61.33;32.30;;;;;;;-2.13;63.48;100926.19;1713498;81;25389;-89
2021/03/10 01:43:46;;;;;;;76.07;35.20;;;;;;;-2.10;63.55;100918.79;1738451;80;25415;-89
2021/03/10 01:46:13;;;;;;;63.40;32.83;;;;;;;-2.05;63.52;100922.83;1724434;80;25786;-89
2021/03/10 01:48:40;;;;;;;63.90;33.20;;;;;;;-2.07;63.50;100923.34;1741163;80;25495;-88
2021/03/10 01:51:07;;;;;;;63.58;33.30;;;;;;;-2.12;63.53;100920.16;1742639;80;26572;-88
2021/03/10 01:53:34;;;;;;;59.58;32.55;;;;;;;-2.15;63.62;100916.46;1735933;80;25470;-88
2021/03/10 01:56:02;;;;;;;60.58;33.50;;;;;;;-2.15;63.63;100918.20;1745570;80;25793;-88
2021/03/10 01:58:30;;;;;;;72.12;33.88;;;;;;;-2.19;63.69;100913.64;1722540;81;25763;-88
2021/03/10 02:00:56;;;;;;;70.08;33.30;;;;;;;-2.16;63.89;100916.06;1725674;80;25909;-88
2021/03/10 02:03:23;;;;;;;69.10;33.78;;;;;;;-2.14;63.85;100910.89;1733699;80;26462;-89
2021/03/10 02:05:49;;;;;;;67.67;33.90;;;;;;;-2.14;63.92;100914.72;1734913;80;25727;-89
2021/03/10 02:08:39;;;;;;;69.00;32.83;;;;;;;-2.14;63.92;100912.98;1735575;80;25349;-89
2021/03/10 02:11:11;;;;;;;64.67;32.53;;;;;;;-2.17;63.89;100909.75;1730626;80;25717;-89
2021/03/10 02:14:17;;;;;;;69.20;33.65;;;;;;;-2.17;64.02;100904.17;1730756;80;25901;-88
2021/03/10 02:17:01;;;;;;;62.67;33.40;;;;;;;-2.18;63.99;100903.80;1742174;79;25714;-90
2021/03/10 02:20:01;;;;;;;63.05;32.48;;;;;;;-2.18;64.01;100899.11;1732703;80;25383;-90
2021/03/10 02:22:43;;;;;;;;;;;;;;;-2.24;64.07;100894.67;1715073;80;25460;-90
2021/03/10 02:25:41;;;;;;;61.68;32.58;;;;;;;-2.22;64.11;100900.16;1737682;80;25443;-89
2021/03/10 02:28:08;;;;;;;62.50;31.80;;;;;;;-2.24;64.22;100904.05;1725739;80;25290;-90
2021/03/10 02:30:38;;;;;;;60.30;31.82;;;;;;;-2.24;64.39;100900.22;1738042;80;25728;-90
2021/03/10 02:33:19;;;;;;;;;;;;;;;-2.24;64.38;100898.94;1742845;80;25852;-87
2021/03/10 02:35:50;;;;;;;66.97;31.35;;;;;;;-2.29;64.29;100903.01;1741859;80;25401;-88
2021/03/10 02:38:21;;;;;;;63.08;33.18;;;;;;;-2.35;64.38;100903.27;1726525;79;25543;-87
2021/03/10 02:40:48;;;;;;;67.17;32.73;;;;;;;-2.39;64.52;100897.91;1730138;80;26163;-86
2021/03/10 02:43:15;;;;;;;69.87;35.15;;;;;;;-2.41;64.63;100900.16;1707163;81;25668;-87
2021/03/10 02:45:43;;;;;;;68.37;31.82;;;;;;;-2.44;64.66;100899.84;1730914;80;25790;-87
2021/03/10 02:48:11;;;;;;;59.38;32.35;;;;;;;-2.45;64.75;100904.59;1748335;79;25466;-87
2021/03/10 02:50:39;;;;;;;64.25;33.55;;;;;;;-2.42;64.85;100904.91;1729108;80;26141;-88
2021/03/10 02:53:08;;;;;;;66.82;32.90;;;;;;;-2.43;64.84;100904.51;1739952;80;25822;-88
2021/03/10 02:55:37;;;;;;;64.25;32.88;;;;;;;-2.44;64.91;100901.13;1746365;80;25624;-88
2021/03/10 02:58:04;;;;;;;71.47;36.53;;;;;;;-2.42;64.99;100903.62;1735783;80;25339;-88
2021/03/10 03:00:30;;;;;;;67.95;34.65;;;;;;;-2.34;65.07;100901.55;1720409;81;25403;-88
2021/03/10 03:02:57;;;;;;;71.50;34.85;;;;;;;-2.34;65.01;100899.00;1737802;80;25337;-88
2021/03/10 03:05:23;;;;;;;67.22;34.23;;;;;;;-2.41;64.84;100902.72;1742638;80;25436;-88
2021/03/10 03:07:50;;;;;;;65.20;35.43;;;;;;;-2.49;64.92;100906.44;1742274;80;25687;-88
2021/03/10 03:10:27;;;;;;;71.80;36.55;;;;;;;-2.53;65.13;100902.82;1706789;80;25298;-88
2021/03/10 03:12:55;;;;;;;76.57;37.63;;;;;;;-2.57;65.24;100896.98;1742224;80;25740;-91
2021/03/10 03:15:25;;;;;;;74.25;35.95;;;;;;;-2.58;65.39;100896.62;1731610;80;25358;-91
2021/03/10 03:17:52;;;;;;;;;;;;;;;-2.55;65.57;100898.22;1742507;80;25497;-90
2021/03/10 03:20:21;;;;;;;71.33;36.53;;;;;;;-2.54;65.60;100903.28;1745678;79;25728;-88
2021/03/10 03:22:54;;;;;;;73.50;35.50;;;;;;;-2.54;65.67;100902.00;1740074;80;25360;-89
2021/03/10 03:25:27;;;;;;;73.62;36.73;;;;;;;-2.51;65.73;100901.00;1737550;80;25413;-88
2021/03/10 03:27:57;;;;;;;69.87;34.45;;;;;;;-2.42;65.83;100899.34;1701108;82;25343;-89
2021/03/10 03:30:26;;;;;;;69.70;33.53;;;;;;;-2.47;65.57;100898.70;1695229;81;25426;-91
2021/03/10 03:32:56;;;;;;;69.85;34.00;;;;;;;-2.48;65.64;100903.00;1705376;81;25950;-90
2021/03/10 03:35:23;;;;;;;72.70;35.03;;;;;;;-2.54;65.59;100902.00;1687299;82;25398;-89
2021/03/10 03:37:54;;;;;;;63.08;33.25;;;;;;;-2.56;65.61;100899.95;1707710;80;25333;-89
2021/03/10 03:40:23;;;;;;;74.62;35.38;;;;;;;-2.69;65.57;100903.48;1680828;83;25404;-89
2021/03/10 03:42:52;;;;;;;68.12;33.85;;;;;;;-2.72;65.78;100904.08;1680274;83;25500;-89
2021/03/10 03:45:22;;;;;;;70.17;34.25;;;;;;;-2.73;65.94;100898.13;1707579;80;25743;-88
2021/03/10 03:47:56;;;;;;;67.72;34.80;;;;;;;-2.71;65.99;100903.16;1731884;80;25465;-89
2021/03/10 03:50:26;;;;;;;63.90;32.70;;;;;;;-2.71;66.09;100902.72;1740718;80;25488;-89
2021/03/10 03:52:54;;;;;;;70.80;34.73;;;;;;;-2.70;66.08;100901.02;1740314;80;25510;-89
2021/03/10 03:55:21;;;;;;;71.33;34.53;;;;;;;-2.65;66.22;100901.61;1727667;80;25803;-89
2021/03/10 03:57:48;;;;;;;66.65;34.33;;;;;;;-2.62;66.22;100905.77;1745867;79;26635;-89
2021/03/10 04:00:19;;;;;;;63.48;33.98;;;;;;;-2.58;66.22;100898.36;1737214;80;25765;-89
2021/03/10 04:02:47;;;;;;;65.35;33.60;;;;;;;-2.59;66.13;100905.20;1740872;80;25355;-89
2021/03/10 04:05:15;;;;;;;70.12;35.65;;;;;;;-2.59;66.20;100896.67;1742747;79;25915;-90
2021/03/10 04:07:52;;;;;;;73.57;35.17;;;;;;;-2.65;66.13;100900.78;1739392;80;25822;-90
2021/03/10 04:10:24;;;;;;;72.80;38.23;;;;;;;-2.65;66.24;100901.61;1741618;80;25814;-89
2021/03/10 04:12:51;;;;;;;73.33;36.28;;;;;;;-2.60;66.33;100902.70;1744377;80;25420;-89
2021/03/10 04:15:18;;;;;;;67.92;34.33;;;;;;;-2.55;66.35;100899.49;1740837;80;25340;-90
2021/03/10 04:17:45;;;;;;;62.15;34.45;;;;;;;-2.59;66.26;100899.23;1722749;80;25317;-90
2021/03/10 04:20:16;;;;;;;66.00;35.65;;;;;;;-2.70;66.21;100899.28;1724935;81;25358;-83
2021/03/10 04:22:43;;;;;;;61.88;34.00;;;;;;;-2.78;66.25;100909.47;1728113;80;25908;-83
2021/03/10 04:25:11;;;;;;;64.60;33.88;;;;;;;-2.68;66.58;100910.70;1727992;80;25337;-83
2021/03/10 04:27:38;;;;;;;66.67;34.05;;;;;;;-2.56;66.55;100910.64;1737228;80;25358;-84
2021/03/10 04:30:08;;;;;;;76.20;36.63;;;;;;;-2.62;66.34;100912.16;1730337;80;25437;-84
2021/03/10 04:32:34;;;;;;;73.65;37.05;;;;;;;-2.76;66.28;100911.03;1719871;81;25460;-89
2021/03/10 04:35:04;;;;;;;74.05;37.35;;;;;;;-2.83;66.39;100911.39;1733982;80;25598;-90
2021/03/10 04:37:30;;;;;;;73.65;39.20;;;;;;;-2.84;66.60;100913.09;1724279;81;25446;-89
2021/03/10 04:39:56;;;;;;;75.75;39.20;;;;;;;-2.88;66.68;100914.13;1734588;80;25334;-90
2021/03/10 04:42:23;;;;;;;76.55;40.80;;;;;;;-2.92;66.75;100916.42;1739134;80;25455;-90
2021/03/10 04:44:49;;;;;;;77.65;40.65;;;;;;;-2.89;66.89;100917.59;1713358;80;25398;-90
2021/03/10 04:47:16;;;;;;;69.90;39.58;;;;;;;-2.86;67.00;100915.36;1735669;80;25700;-90
2021/03/10 04:49:42;;;;;;;82.25;39.98;;;;;;;-2.87;67.02;100914.50;1731155;80;25528;-90
2021/03/10 04:52:09;;;;;;;71.60;36.73;;;;;;;-2.86;67.12;100911.06;1738334;80;25659;-90
2021/03/10 04:54:36;;;;;;;81.08;39.50;;;;;;;-2.88;67.10;100911.57;1732358;80;25406;-89
2021/03/10 04:57:03;;;;;;;76.70;36.55;;;;;;;-2.88;67.14;100907.73;1728614;81;25617;-90
2021/03/10 04:59:29;;;;;;;67.35;35.13;;;;;;;-2.86;67.21;100909.79;1739920;80;25856;-90
2021/03/10 05:01:56;;;;;;;77.82;37.80;;;;;;;-2.88;67.22;100905.63;1743135;80;25393;-89
2021/03/10 05:04:22;;;;;;;66.80;36.38;;;;;;;-2.88;67.28;100913.30;1739565;80;25458;-90
2021/03/10 05:06:48;;;;;;;73.42;36.73;;;;;;;-2.90;67.31;100910.34;1740261;80;25278;-89
2021/03/10 05:09:15;;;;;;;71.28;38.10;;;;;;;-2.90;67.36;100909.52;1711978;80;25457;-90
2021/03/10 05:11:41;;;;;;;75.50;36.05;;;;;;;-2.88;67.40;100917.14;1737528;80;25582;-89
2021/03/10 05:14:07;;;;;;;73.40;37.23;;;;;;;-2.91;67.43;100915.55;1743899;80;25722;-89
2021/03/10 05:16:34;;;;;;;66.87;35.78;;;;;;;-2.88;67.54;100915.41;1737970;80;25808;-90
2021/03/10 05:19:00;;;;;;;73.55;35.95;;;;;;;-2.86;67.59;100917.91;1733790;80;25418;-90
2021/03/10 05:21:27;;;;;;;71.92;40.17;;;;;;;-2.85;67.53;100917.00;1734117;80;25331;-91
2021/03/10 05:23:53;;;;;;;67.15;35.43;;;;;;;-2.85;67.55;100911.89;1738971;80;25693;-90
2021/03/10 05:26:19;;;;;;;76.55;37.50;;;;;;;-2.82;67.62;100911.75;1745367;79;25362;-90
2021/03/10 05:28:46;;;;;;;75.47;35.90;;;;;;;-2.80;67.63;100912.08;1740752;80;25935;-90
2021/03/10 05:31:12;;;;;;;70.20;36.85;;;;;;;-2.75;67.64;100911.89;1717178;80;25428;-90
2021/03/10 05:33:38;;;;;;;75.20;37.48;;;;;;;-2.74;67.67;100912.25;1726307;80;25358;-89
2021/03/10 05:36:05;;;;;;;70.55;37.20;;;;;;;-2.70;67.68;100910.79;1733037;80;25606;-89
2021/03/10 05:38:32;;;;;;;68.95;36.25;;;;;;;-2.72;67.57;100913.85;1730436;80;25407;-90
2021/03/10 05:41:00;;;;;;;73.20;37.78;;;;;;;-2.68;67.72;100911.53;1746495;80;25314;-90
2021/03/10 05:43:26;;;;;;;68.65;34.38;;;;;;;-2.57;67.79;100915.36;1736068;79;26034;-90
2021/03/10 05:45:53;;;;;;;70.65;37.58;;;;;;;-2.53;67.71;100913.88;1747709;79;25916;-90
2021/03/10 05:48:19;;;;;;;82.25;39.95;;;;;;;-2.49;67.74;100915.84;1736882;80;25607;-89
2021/03/10 05:50:45;;;;;;;86.42;39.05;;;;;;;-2.47;67.67;100907.66;1737715;80;25386;-89
2021/03/10 05:53:13;;;;;;;77.60;42.55;;;;;;;-2.44;67.73;100919.04;1739986;80;25612;-89
2021/03/10 05:55:43;;;;;;;76.92;39.10;;;;;;;-2.41;67.75;100923.19;1747824;80;25387;-88
2021/03/10 05:58:13;;;;;;;77.00;39.88;;;;;;;-2.34;67.79;100925.42;1707785;81;26021;-89
2021/03/10 06:00:47;;;;;;;79.90;41.63;;;;;;;-2.33;67.74;100921.95;1705664;82;25642;-90
2021/03/10 06:03:15;;;;;;;74.40;39.33;;;;;;;-2.27;67.76;100932.36;1732487;80;25302;-89
2021/03/10 06:05:43;;;;;;;77.87;38.98;;;;;;;-2.22;67.68;100938.11;1730925;80;25706;-89
2021/03/10 06:08:14;;;;;;;80.25;39.92;;;;;;;-2.18;67.68;100931.97;1741940;80;25640;-89
2021/03/10 06:10:43;;;;;;;78.83;37.17;;;;;;;-2.18;67.68;100937.52;1739449;80;27648;-89
2021/03/10 06:13:30;;;;;;;83.35;39.27;;;;;;;-2.15;67.70;100931.00;1732975;80;26008;-90
2021/03/10 06:16:01;;;;;;;75.87;38.17;;;;;;;-2.13;67.70;100936.86;1740562;80;25349;-89
2021/03/10 06:18:34;;;;;;;72.45;36.75;;;;;;;-2.10;67.68;100948.23;1730416;81;25426;-89
2021/03/10 06:21:13;;;;;;;73.90;35.23;;;;;;;-2.10;67.71;100949.09;1739329;80;25353;-90
2021/03/10 06:24:02;;;;;;;67.40;35.95;;;;;;;-2.05;67.74;100946.30;1738653;80;25334;-89
2021/03/10 06:26:34;;;;;;;73.50;38.73;;;;;;;-2.00;67.86;100953.33;1739162;80;25794;-88
2021/03/10 06:29:02;;;;;;;72.92;34.58;;;;;;;-1.92;67.82;100957.66;1719163;80;25654;-89
2021/03/10 06:31:32;;;;;;;71.00;34.75;;;;;;;-1.89;67.79;100954.12;1727442;80;25371;-90
2021/03/10 06:34:10;;;;;;;73.92;35.05;;;;;;;-1.84;67.82;100959.87;1725471;80;25359;-88
2021/03/10 06:36:44;;;;;;;73.40;35.92;;;;;;;-1.82;67.75;100963.20;1739845;80;25340;-88
2021/03/10 06:39:13;;;;;;;72.12;35.92;;;;;;;-1.77;67.81;100961.26;1737887;80;26552;-88
2021/03/10 06:41:43;;;;;;;69.87;35.40;;;;;;;-1.73;67.76;100958.92;1743180;80;25368;-88
2021/03/10 06:44:26;;;;;;;70.40;34.30;;;;;;;-1.68;67.75;100963.38;1727802;80;25377;-89
2021/03/10 06:46:58;;;;;;;63.30;34.58;;;;;;;-1.61;67.79;100957.50;1731639;80;25335;-89
2021/03/10 06:49:52;;;;;;;68.62;35.98;;;;;;;-1.58;67.67;100959.49;1744888;80;25347;-88
2021/03/10 06:52:19;;;;;;;67.32;35.05;;;;;;;-1.51;67.73;100964.33;1675810;82;25699;-68
2021/03/10 06:55:00;;;;;;;64.27;35.70;;;;;;;-1.47;67.80;100957.70;1664896;83;26058;-68
2021/03/10 06:57:27;;;;;;;66.92;35.40;;;;;;;-1.40;67.77;100962.90;1674022;83;25593;-68
2021/03/10 06:59:56;;;;;;;63.65;32.98;;;;;;;-1.30;67.76;100965.04;1676603;83;25751;-69
2021/03/10 07:02:33;;;;;;;64.03;33.40;;;;;;;-1.28;67.54;100960.22;1660311;83;25902;-69
2021/03/10 07:05:01;;;;;;;66.80;33.70;;;;;;;-1.24;67.56;100972.43;1661459;83;26459;-68
2021/03/10 07:07:29;;;;;;;73.55;34.50;;;;;;;-1.19;67.58;100971.76;1665388;83;25579;-68
2021/03/10 07:09:57;;;;;;;67.30;34.45;;;;;;;-1.10;67.62;100978.99;1668229;83;26044;-68
2021/03/10 07:12:29;;;;;;;65.42;35.28;;;;;;;-1.02;67.54;100976.88;1655747;83;25994;-68
2021/03/10 07:14:55;;;;;;;68.05;36.98;;;;;;;-0.92;67.34;100977.27;1644724;85;25817;-69
2021/03/10 07:17:25;;;;;;;72.12;33.30;;;;;;;-0.93;67.08;100975.59;1611706;85;25877;-69
2021/03/10 07:19:51;;;;;;;72.40;37.78;;;;;;;-0.89;67.23;100971.98;1635425;85;25696;-69
2021/03/10 07:22:34;;;;;;;72.05;35.88;;;;;;;-0.80;67.20;100983.52;1614905;85;25954;-68
2021/03/10 07:25:09;;;;;;;67.08;34.83;;;;;;;-0.78;67.10;100978.69;1637096;85;25377;-70
2021/03/10 07:28:02;;;;;;;64.12;33.60;;;;;;;-0.73;66.80;100984.88;1655881;84;25950;-69
2021/03/10 07:30:45;;;;;;;65.17;38.40;;;;;;;-0.72;66.81;100983.51;1689291;82;26631;-70
2021/03/10 07:33:14;;;;;;;70.85;36.25;;;;;;;-0.67;66.70;100985.39;1668454;83;25763;-70
2021/03/10 07:36:00;;;;;;;64.17;35.35;;;;;;;-0.61;66.70;100985.53;1727951;80;26134;-68
2021/03/10 07:38:39;;;;;;;72.10;36.98;;;;;;;-0.52;66.78;100985.52;1722953;80;25813;-70
2021/03/10 07:41:10;;;;;;;78.47;38.50;;;;;;;-0.41;66.77;100990.10;1732817;80;26338;-69
2021/03/10 07:43:40;;;;;;;76.20;40.40;;;;;;;-0.28;66.75;100989.39;1725611;80;25893;-69
2021/03/10 07:46:31;;;;;;;68.28;35.38;;;;;;;-0.18;66.67;100986.36;1714423;80;26331;-69
2021/03/10 07:49:00;;;;;;;66.47;35.17;;;;;;;-0.12;66.52;100987.31;1704106;81;26022;-69
2021/03/10 07:51:30;;;;;;;68.65;37.30;;;;;;;0.04;66.50;100991.19;1675976;83;25431;-70
2021/03/10 07:53:58;;;;;;;66.90;35.40;;;;;;;0.13;66.38;100991.51;1735235;80;25790;-71
2021/03/10 07:56:32;;;;;;;67.12;35.00;;;;;;;0.25;66.27;100986.64;1739616;80;25635;-71
2021/03/10 07:59:14;;;;;;;66.70;34.90;;;;;;;0.35;66.21;100995.03;1735564;80;25703;-72
2021/03/10 08:01:41;;;;;;;62.90;36.28;;;;;;;0.42;66.00;100992.97;1739315;80;25790;-71
2021/03/10 08:04:17;;;;;;;67.12;36.28;;;;;;;0.48;65.91;100995.20;1732688;81;25949;-71
2021/03/10 08:06:52;;;;;;;70.75;34.90;;;;;;;0.54;65.82;100990.17;1741819;80;26550;-70
2021/03/10 08:09:24;;;;;;;61.13;34.00;;;;;;;0.59;65.66;100996.72;1726685;80;25917;-72
2021/03/10 08:12:11;;;;;;;62.45;35.58;;;;;;;0.71;65.65;100993.94;1687371;81;25969;-72
2021/03/10 08:14:43;;;;;;;55.38;31.93;;;;;;;0.79;65.64;100996.06;1735230;80;25706;-70
2021/03/10 08:17:21;;;;;;;54.95;31.23;;;;;;;0.95;65.50;101003.28;1728251;80;25559;-69
2021/03/10 08:20:00;;;;;;;58.65;29.42;;;;;;;1.04;65.21;100999.37;1721115;80;25647;-71
2021/03/10 08:22:29;;;;;;;54.75;27.77;;;;;;;1.15;65.01;100992.33;1722488;81;25725;-72
2021/03/10 08:24:58;;;;;;;51.40;27.30;;;;;;;1.21;64.44;100989.39;1725175;80;25826;-71
2021/03/10 08:27:35;;;;;;;54.83;28.62;;;;;;;1.25;63.84;100992.96;1722464;81;26471;-70
2021/03/10 08:30:05;;;;;;;40.95;25.08;;;;;;;1.32;64.00;100997.31;1737350;80;25411;-73
2021/03/10 08:32:33;;;;;;;53.00;28.35;;;;;;;1.38;63.49;100994.84;1729621;80;25376;-71
2021/03/10 08:35:13;;;;;;;43.40;25.25;;;;;;;1.47;63.55;100995.57;1732834;80;25701;-70
2021/03/10 08:37:42;;;;;;;46.00;26.48;;;;;;;1.56;63.50;100992.47;1729022;80;25830;-69
2021/03/10 08:40:13;;;;;;;40.00;21.40;;;;;;;1.64;63.18;100995.42;1721980;80;25758;-70
2021/03/10 08:42:46;;;;;;;45.98;23.47;;;;;;;1.72;62.72;100993.20;1700949;81;25598;-70
2021/03/10 08:45:22;;;;;;;42.43;20.82;;;;;;;1.80;62.50;100991.90;1718768;80;25762;-69
2021/03/10 08:48:07;;;;;;;39.67;21.40;;;;;;;1.81;62.01;100989.24;1718130;80;25771;-70
2021/03/10 08:50:41;;;;;;;36.15;21.42;;;;;;;1.85;61.82;100990.70;1729178;80;25839;-71
2021/03/10 08:53:11;;;;;;;32.88;18.42;;;;;;;2.02;61.91;100988.84;1738334;80;25716;-71
2021/03/10 08:55:38;;;;;;;33.92;18.20;;;;;;;2.12;61.14;100984.31;1724052;81;25402;-71
2021/03/10 08:58:13;;;;;;;31.48;17.60;;;;;;;2.19;60.97;100982.20;1725807;80;25938;-70
2021/03/10 09:00:41;;;;;;;30.20;17.12;;;;;;;2.27;60.43;100985.59;1723662;79;25848;-71
2021/03/10 09:03:17;;;;;;;37.17;17.00;;;;;;;2.32;60.36;100980.95;1736291;80;25827;-70
2021/03/10 09:05:50;;;;;;;19.20;10.32;;;;;;;2.43;60.33;100984.99;1731454;80;26342;-69
2021/03/10 09:08:23;;;;;;;24.85;13.10;;;;;;;2.33;59.48;100948.63;1701109;81;25780;-70
2021/03/10 09:10:52;;;;;;;23.85;12.68;;;;;;;2.58;59.34;100976.27;1683533;83;25823;-69
2021/03/10 09:13:33;;;;;;;22.10;13.10;;;;;;;2.70;59.06;100981.12;1671115;84;26033;-70
2021/03/10 09:16:11;;;;;;;28.92;13.98;;;;;;;2.75;58.44;100982.09;1673445;84;25789;-69
2021/03/10 09:18:39;;;;;;;20.25;10.40;;;;;;;2.80;58.11;100984.73;1603360;86;26328;-71
2021/03/10 09:21:06;;;;;;;15.70;7.65;;;;;;;2.81;57.52;100977.81;1697320;82;25888;-69
2021/03/10 09:23:35;;;;;;;13.93;7.30;;;;;;;2.65;57.04;100956.89;1670446;83;26528;-70
2021/03/10 09:26:04;;;;;;;18.83;8.77;;;;;;;2.90;56.78;100978.53;1670449;82;25894;-70
2021/03/10 09:28:34;;;;;;;17.67;9.05;;;;;;;2.97;56.29;100981.05;1695801;82;25765;-70
2021/03/10 09:31:15;;;;;;;18.15;9.45;;;;;;;2.94;54.28;100978.67;1695510;83;25953;-70
2021/03/10 09:33:43;;;;;;;19.37;10.38;;;;;;;2.86;54.86;100983.07;1687869;83;25875;-70
2021/03/10 09:36:11;;;;;;;20.90;10.10;;;;;;;2.81;54.85;100975.23;1695967;83;25753;-70
2021/03/10 09:38:42;;;;;;;17.77;9.65;;;;;;;2.85;55.27;100979.28;1701822;82;25736;-70
2021/03/10 09:41:10;;;;;;;17.27;10.08;;;;;;;2.88;54.84;100982.48;1694281;83;43068;-71
2021/03/10 09:43:38;;;;;;;17.80;10.38;;;;;;;2.94;55.07;100977.84;1696688;83;25820;-70
2021/03/10 09:46:08;;;;;;;15.18;8.93;;;;;;;2.96;54.30;100982.45;1696220;83;25789;-70
2021/03/10 09:48:40;;;;;;;16.50;10.40;;;;;;;2.93;54.61;100981.38;1692058;82;25831;-69
2021/03/10 09:51:15;;;;;;;20.70;11.15;;;;;;;3.04;54.92;100984.08;1724895;80;27071;-69
2021/03/10 09:53:48;;;;;;;19.90;10.03;;;;;;;3.21;54.98;100979.90;1731436;80;25838;-71
2021/03/10 09:56:22;;;;;;;20.60;9.80;;;;;;;3.32;54.29;100980.48;1732933;80;25762;-73
2021/03/10 09:58:56;;;;;;;18.02;9.58;;;;;;;3.29;53.65;100981.50;1720021;81;27037;-71
2021/03/10 10:01:46;;;;;;;18.90;10.53;;;;;;;3.18;53.69;100981.39;1725531;80;25814;-72
2021/03/10 10:04:13;;;;;;;17.85;10.28;;;;;;;3.23;53.64;100990.97;1684513;82;26176;-72
2021/03/10 10:06:52;;;;;;;17.50;10.38;;;;;;;3.22;53.04;100994.48;1727602;80;25861;-71
2021/03/10 10:09:20;;;;;;;23.40;12.23;;;;;;;3.13;52.80;100991.67;1723902;80;25772;-71
2021/03/10 10:11:47;;;;;;;19.42;10.32;;;;;;;3.16;53.07;100994.05;1744773;80;26417;-72
2021/03/10 10:14:13;;;;;;;19.32;9.85;;;;;;;3.18;53.08;100992.20;1732417;80;25717;-69
2021/03/10 10:16:40;;;;;;;20.37;10.05;;;;;;;3.14;51.81;100996.75;1728047;81;26677;-70
2021/03/10 10:19:08;;;;;;;16.02;8.78;;;;;;;3.15;52.37;101002.73;1735938;80;25819;-70
2021/03/10 10:21:35;;;;;;;18.30;9.18;;;;;;;3.29;52.79;101004.75;1713935;81;25870;-70
2021/03/10 10:24:01;;;;;;;16.87;8.78;;;;;;;3.25;51.58;101007.20;1698825;81;25695;-69
2021/03/10 10:26:28;;;;;;;16.70;10.68;;;;;;;3.25;51.58;101007.20;1731259;80;25825;-69
2021/03/10 10:28:54;;;;;;;17.40;9.48;;;;;;;3.38;51.12;101004.60;1733114;80;25785;-70
2021/03/10 10:31:21;;;;;;;17.27;9.45;;;;;;;3.44;51.76;100996.94;1715658;81;25870;-71
2021/03/10 10:33:48;;;;;;;15.18;8.48;;;;;;;3.52;51.88;100999.36;1726691;80;25797;-71
2021/03/10 10:36:14;;;;;;;17.50;9.43;;;;;;;3.57;50.88;100993.86;1730508;80;25418;-72
2021/03/10 10:38:42;;;;;;;17.62;9.53;;;;;;;3.52;50.57;101001.94;1739156;80;25794;-70
2021/03/10 10:41:08;;;;;;;20.62;10.95;;;;;;;3.53;51.11;101006.64;1736165;81;26029;-70
2021/03/10 10:43:35;;;;;;;22.27;10.98;;;;;;;3.58;51.23;100999.41;1728739;81;26606;-70
2021/03/10 10:46:03;;;;;;;22.55;11.70;;;;;;;3.61;51.03;101006.13;1725880;81;25620;-70
2021/03/10 10:48:31;;;;;;;20.20;10.45;;;;;;;3.63;50.90;101002.51;1730383;80;25797;-71
2021/03/10 10:51:00;;;;;;;18.85;9.70;;;;;;;3.66;51.04;101003.59;1729163;81;25308;-70
2021/03/10 10:53:28;;;;;;;16.32;9.15;;;;;;;3.67;50.69;100997.47;1723802;79;26020;-72
2021/03/10 10:55:55;;;;;;;17.77;9.98;;;;;;;3.68;50.62;100994.42;1717624;81;25857;-71
2021/03/10 10:58:21;;;;;;;19.30;9.43;;;;;;;3.73;50.68;100996.23;1718417;80;25574;-71
2021/03/10 11:00:48;;;;;;;16.00;8.93;;;;;;;3.76;49.77;100996.87;1730722;80;25291;-72
2021/03/10 11:03:14;;;;;;;19.07;9.18;;;;;;;3.73;49.44;100990.59;1726737;80;25299;-71
2021/03/10 11:05:45;;;;;;;18.40;9.25;;;;;;;3.63;47.62;100987.44;1726070;80;26476;-71
2021/03/10 11:08:13;;;;;;;23.18;12.15;;;;;;;3.37;47.46;100985.34;1720413;80;25720;-70
2021/03/10 11:10:40;;;;;;;16.87;9.53;;;;;;;3.37;49.13;100985.34;1709324;80;25377;-71
2021/03/10 11:13:07;;;;;;;21.57;9.63;;;;;;;3.53;49.78;100974.33;1705056;80;26018;-71
2021/03/10 11:15:38;;;;;;;14.68;8.83;;;;;;;3.78;50.17;100976.06;1694428;81;26033;-70
2021/03/10 11:18:15;;;;;;;19.15;9.93;;;;;;;3.95;49.72;100974.41;1733641;80;25977;-74
2021/03/10 11:20:41;;;;;;;15.32;8.70;;;;;;;4.07;49.05;100964.17;1715237;80;25381;-75
2021/03/10 11:23:08;;;;;;;23.15;9.90;;;;;;;4.09;49.28;100970.03;1720613;80;25322;-75
2021/03/10 11:25:34;;;;;;;16.70;9.43;;;;;;;4.17;49.18;100969.03;1721418;80;25806;-75
2021/03/10 11:28:01;;;;;;;16.23;9.28;;;;;;;4.15;48.72;100962.69;1730763;80;25382;-75